Fishertown, Pennsylvania
Current Conditions -  °F | °C
As of 11:53 AM on Tuesday 27 Jan 2015 (Local Time) from KAOO Reporting Station
Haze Haze  
Wind Chill: 12°   Ceiling: 1900
Heat Index: 23°   Visibility: 6mi
Dew Point: 17°   Wind: 10mph
Humidity: 78%   Direction: 310°NW
Pressure: 29.81"   Gusts: NA
Location:  40.12°N, 78.58°W
Report Text: KAOO 271653Z AUTO 31009KT 6SM HZ BKN019 BKN025 OVC030 M05/M08 A2981 RMK AO2 SNE04B32E47 SLP118 P0000 T10501083
Loading
Personal Weather Stations






























Interactive Weather Map New forecast layout! Learn more

10-Day Weather Forecast

Advertisements
Track Severe Weather on mobile